MST,Max TemperatureF,Mean TemperatureF,Min TemperatureF,Max Dew PointF,MeanDew PointF,Min DewpointF,Max Humidity, Mean Humidity, Min Humidity, Max Sea Level PressureIn, Mean Sea Level PressureIn, Min Sea Level PressureIn, Max VisibilityMiles, Mean VisibilityMiles, Min VisibilityMiles, Max Wind SpeedMPH, Mean Wind SpeedMPH, Max Gust SpeedMPH,PrecipitationIn, CloudCover, Events, WindDirDegrees
2013-2-1,43,30,16,23,19,12,80,59,30,30.25,30.13,30.06,20,16,15,21,10,30,0.00,3,,298
2013-2-2,45,29,13,25,21,16,86,62,32,30.37,30.26,30.09,20,16,15,26,8,34,0.00,4,,256
2013-2-3,41,32,22,25,21,14,75,59,47,30.02,29.95,29.74,20,16,15,17,8,22,0.00,4,,181
2013-2-4,42,32,19,21,19,14,86,58,33,29.99,29.82,29.74,15,15,15,28,15,34,0.00,4,,255
2013-2-5,42,26,9,25,18,9,93,69,41,29.93,29.76,29.63,15,15,15,20,5,,0.00,3,,275
2013-2-6,42,30,19,21,16,10,80,56,29,30.04,29.87,29.76,15,15,15,20,9,25,0.00,4,,260
2013-2-7,41,29,17,19,15,10,68,55,36,29.98,29.95,29.82,15,15,15,9,4,,0.00,5,,279
2013-2-8,40,26,12,18,13,7,79,56,29,30.08,30.02,29.83,15,15,15,13,8,,0.00,1,,291
2013-2-9,36,28,19,27,20,12,86,68,50,30.21,30.04,29.92,20,12,1,24,13,48,0.02,6,Snow,338
2013-2-10,31,22,13,18,14,10,86,72,55,30.34,30.25,30.12,15,15,15,14,6,,0.00,1,,217
2013-2-11,42,27,12,23,16,10,68,52,21,30.02,29.97,29.82,20,16,15,13,9,21,0.00,4,,3
2013-2-12,45,34,24,21,19,14,59,46,29,30.01,29.87,29.64,20,16,15,29,12,31,0.00,5,,288
2013-2-13,41,29,17,19,14,9,68,49,26,30.30,30.03,29.78,15,15,15,24,17,34,0.00,5,,309
2013-2-14,34,19,4,13,7,1,86,60,26,30.51,30.43,30.26,15,15,15,9,5,,0.00,4,,351
2013-2-15,50,30,10,27,20,5,69,47,29,30.37,30.23,29.97,15,15,15,29,12,37,0.00,4,,282
2013-2-16,50,40,29,27,22,15,65,46,26,29.96,29.80,29.71,15,15,15,25,10,41,0.00,5,,302
2013-2-17,31,26,19,23,20,14,80,72,59,30.16,30.02,29.86,20,18,15,21,14,28,0.03,6,,353
2013-2-18,25,19,13,23,18,16,100,94,85,30.17,30.10,29.94,12,5,1,18,11,20,0.00,8,Fog-Snow,147
2013-2-19,30,24,17,23,18,16,100,89,64,29.98,29.90,29.78,20,10,0,10,4,,0.00,7,Fog,93
2013-2-20,27,20,14,19,16,12,93,88,74,30.00,29.96,29.76,15,6,0,10,4,,0.02,5,Fog-Snow,144
2013-2-21,37,19,1,23,10,1,93,62,27,29.98,29.90,29.84,15,15,15,20,8,25,0.00,4,,285
2013-2-22,42,26,11,16,12,3,68,44,19,29.80,29.56,29.39,15,15,15,22,8,29,0.00,5,,236
2013-2-23,40,26,11,21,16,10,86,56,31,30.07,29.79,29.48,15,15,15,15,10,17,0.00,6,Fog-Snow,337
2013-2-24,44,28,12,18,11,1,62,39,20,30.07,29.95,29.73,20,16,15,32,12,39,0.00,5,,271
2013-2-25,39,30,21,22,17,12,93,60,23,29.96,29.78,29.66,20,11,1,25,15,26,0.00,8,Snow,331
2013-2-26,29,20,11,22,19,10,100,88,69,30.27,30.22,30.03,20,11,1,16,7,21,0.16,6,Snow,144
2013-2-27,41,28,16,18,14,9,93,55,32,30.23,30.16,30.03,20,16,15,18,10,22,0.00,3,,279
2013-2-28,44,28,13,19,13,9,73,47,19,30.27,30.21,29.98,20,16,15,18,8,18,0.00,5,,278